UAE247 OMDB-SBGL
Flight info
| Callsign | UAE247 |
|---|---|
| Flight time | N/A |
| Altitude | 28000 |
| Route | ANVIX R401 GIDIS G783 UKRAG/N0515F290 L710 KUKDI/N0504F280 B400 DAXAM/N0512F300 B400 RIGAM B404 DEMGO UB404 HARGA UM216 RUDOL DCT PATAR/N0508F320 UN553 NALOS UT136 BUN UH1 KGI UB535 KSA UT417 EBNON UB535 INALO UT417 TETUX/N0501F340 DCT 07S005E 08S000W 10S005W 12S010W 14S015W 16S020W/N0493F360 17S025W 18S030W 19S035W DCT UMREP UZ47 MOLSU |
| Aircraft | B77W/H-SDE1E2E3FGHIJ2J3J4J5M1RWXY/LB1D1 |
Departure
| Time | N/A |
|---|---|
| Airport | Dubai International Airport (OMDB) |
Arrival
| Time | 2026-04-30 10:51 |
|---|---|
| Airport | Rio Galeão – Tom Jobim International Airport (SBGL) |
| Time | Latitude | Longitude | Altitude | Speed | Heading |
|---|---|---|---|---|---|
| 2026-04-30 09:46 | -19.92967 | -37.25686 | 36067 ft | 480 kts | 246° |
| 2026-04-30 09:46 | -19.95594 | -37.32202 | 36067 ft | 479 kts | 246° |
| 2026-04-30 09:47 | -19.98217 | -37.38718 | 36069 ft | 479 kts | 246° |
| 2026-04-30 09:47 | -20.00836 | -37.45230 | 36069 ft | 479 kts | 247° |
| 2026-04-30 09:48 | -20.03453 | -37.51747 | 36068 ft | 479 kts | 247° |
| 2026-04-30 09:48 | -20.06066 | -37.58263 | 36072 ft | 479 kts | 247° |
| 2026-04-30 09:49 | -20.08674 | -37.64773 | 36070 ft | 478 kts | 247° |
| 2026-04-30 09:49 | -20.11278 | -37.71281 | 36072 ft | 478 kts | 247° |
| 2026-04-30 09:50 | -20.13876 | -37.77782 | 36071 ft | 477 kts | 247° |
| 2026-04-30 09:50 | -20.16470 | -37.84284 | 36070 ft | 477 kts | 247° |
| 2026-04-30 09:51 | -20.19062 | -37.90785 | 36074 ft | 477 kts | 247° |
| 2026-04-30 09:51 | -20.21651 | -37.97289 | 36080 ft | 477 kts | 248° |
| 2026-04-30 09:52 | -20.24233 | -38.03783 | 36070 ft | 476 kts | 248° |
| 2026-04-30 09:52 | -20.26809 | -38.10269 | 36069 ft | 475 kts | 248° |
| 2026-04-30 09:53 | -20.29360 | -38.16702 | 36070 ft | 474 kts | 248° |
| 2026-04-30 09:53 | -20.31940 | -38.23215 | 36072 ft | 474 kts | 248° |
| 2026-04-30 09:54 | -20.34498 | -38.29683 | 36074 ft | 473 kts | 248° |
| 2026-04-30 09:54 | -20.37054 | -38.36152 | 36073 ft | 473 kts | 248° |
| 2026-04-30 09:55 | -20.39606 | -38.42620 | 36073 ft | 474 kts | 248° |
| 2026-04-30 09:55 | -20.42158 | -38.49094 | 36074 ft | 474 kts | 248° |
| 2026-04-30 09:56 | -20.44709 | -38.55574 | 36072 ft | 474 kts | 248° |
| 2026-04-30 09:56 | -20.47258 | -38.62060 | 36071 ft | 474 kts | 248° |
| 2026-04-30 09:57 | -20.49807 | -38.68552 | 36074 ft | 475 kts | 248° |
| 2026-04-30 09:57 | -20.52353 | -38.75045 | 36082 ft | 475 kts | 248° |
| 2026-04-30 09:58 | -20.54894 | -38.81535 | 36070 ft | 473 kts | 248° |
| 2026-04-30 09:58 | -20.57428 | -38.88013 | 36070 ft | 472 kts | 248° |
| 2026-04-30 09:59 | -20.62445 | -39.00867 | 36074 ft | 470 kts | 248° |
| 2026-04-30 10:00 | -20.66205 | -39.10520 | 36075 ft | 469 kts | 248° |
| 2026-04-30 10:01 | -20.69956 | -39.20171 | 36072 ft | 469 kts | 248° |
| 2026-04-30 10:02 | -20.73700 | -39.29821 | 36071 ft | 469 kts | 248° |
| 2026-04-30 10:02 | -20.76190 | -39.36251 | 36068 ft | 468 kts | 248° |
| 2026-04-30 10:03 | -20.78679 | -39.42684 | 36073 ft | 468 kts | 248° |
| 2026-04-30 10:03 | -20.81164 | -39.49117 | 36073 ft | 468 kts | 248° |
| 2026-04-30 10:04 | -20.83646 | -39.55549 | 36080 ft | 468 kts | 249° |
| 2026-04-30 10:04 | -20.86122 | -39.61976 | 36064 ft | 467 kts | 249° |
| 2026-04-30 10:05 | -20.88593 | -39.68396 | 36068 ft | 466 kts | 249° |
| 2026-04-30 10:05 | -20.91052 | -39.74758 | 36071 ft | 466 kts | 249° |
| 2026-04-30 10:06 | -20.93530 | -39.81160 | 36067 ft | 465 kts | 249° |
| 2026-04-30 10:06 | -20.96001 | -39.87559 | 36066 ft | 465 kts | 249° |
| 2026-04-30 10:07 | -20.98469 | -39.93961 | 36076 ft | 465 kts | 249° |
| 2026-04-30 10:07 | -21.00933 | -40.00360 | 36064 ft | 465 kts | 249° |
| 2026-04-30 10:08 | -21.02976 | -40.05675 | 36065 ft | 464 kts | 249° |
| 2026-04-30 10:08 | -21.05430 | -40.12064 | 36062 ft | 464 kts | 249° |
| 2026-04-30 10:09 | -21.07876 | -40.18443 | 36063 ft | 463 kts | 249° |
| 2026-04-30 10:09 | -21.10321 | -40.24826 | 36062 ft | 463 kts | 249° |
| 2026-04-30 10:10 | -21.12760 | -40.31204 | 36072 ft | 463 kts | 249° |
| 2026-04-30 10:10 | -21.15197 | -40.37581 | 36062 ft | 462 kts | 249° |
| 2026-04-30 10:11 | -21.17628 | -40.43941 | 36059 ft | 461 kts | 249° |
| 2026-04-30 10:11 | -21.20066 | -40.50286 | 36060 ft | 460 kts | 249° |
| 2026-04-30 10:12 | -21.22499 | -40.56621 | 36063 ft | 460 kts | 249° |
| 2026-04-30 10:12 | -21.24926 | -40.62956 | 36063 ft | 459 kts | 249° |
| 2026-04-30 10:13 | -21.27351 | -40.69295 | 36069 ft | 460 kts | 249° |
| 2026-04-30 10:13 | -21.29773 | -40.75638 | 36066 ft | 460 kts | 249° |
| 2026-04-30 10:14 | -21.32194 | -40.81983 | 36065 ft | 460 kts | 249° |
| 2026-04-30 10:14 | -21.35818 | -40.91501 | 36071 ft | 460 kts | 249° |
| 2026-04-30 10:15 | -21.38231 | -40.97855 | 36071 ft | 460 kts | 249° |
| 2026-04-30 10:15 | -21.40624 | -41.04216 | 36070 ft | 460 kts | 249° |
| 2026-04-30 10:16 | -21.43011 | -41.10580 | 36075 ft | 460 kts | 249° |
| 2026-04-30 10:17 | -21.46592 | -41.20129 | 36072 ft | 459 kts | 249° |
| 2026-04-30 10:17 | -21.50169 | -41.29662 | 36073 ft | 459 kts | 249° |
| 2026-04-30 10:18 | -21.52616 | -41.35992 | 36079 ft | 459 kts | 249° |
| 2026-04-30 10:19 | -21.56173 | -41.45487 | 36087 ft | 459 kts | 250° |
| 2026-04-30 10:19 | -21.58539 | -41.51846 | 36078 ft | 458 kts | 250° |
| 2026-04-30 10:20 | -21.60908 | -41.58198 | 36073 ft | 458 kts | 250° |
| 2026-04-30 10:20 | -21.64456 | -41.67719 | 36085 ft | 457 kts | 250° |
| 2026-04-30 10:21 | -21.66820 | -41.74069 | 36088 ft | 458 kts | 250° |
| 2026-04-30 10:21 | -21.69183 | -41.80425 | 36098 ft | 458 kts | 250° |
| 2026-04-30 10:22 | -21.71543 | -41.86782 | 36097 ft | 458 kts | 250° |
| 2026-04-30 10:22 | -21.73898 | -41.93138 | 36095 ft | 457 kts | 250° |
| 2026-04-30 10:23 | -21.76248 | -41.99489 | 36092 ft | 457 kts | 250° |
| 2026-04-30 10:23 | -21.78595 | -42.05838 | 36092 ft | 457 kts | 250° |
| 2026-04-30 10:24 | -21.80938 | -42.12188 | 36099 ft | 456 kts | 250° |
| 2026-04-30 10:24 | -21.83470 | -42.18428 | 36086 ft | 457 kts | 239° |
| 2026-04-30 10:25 | -21.85492 | -42.21081 | 36098 ft | 462 kts | 226° |
| 2026-04-30 10:25 | -21.88064 | -42.23178 | 36090 ft | 467 kts | 213° |
| 2026-04-30 10:25 | -21.93813 | -42.26514 | 36089 ft | 469 kts | 212° |
| 2026-04-30 10:26 | -21.96667 | -42.28184 | 35820 ft | 463 kts | 212° |
| 2026-04-30 10:26 | -21.99472 | -42.29845 | 35278 ft | 459 kts | 213° |
| 2026-04-30 10:26 | -22.02183 | -42.31581 | 34205 ft | 457 kts | 219° |
| 2026-04-30 10:26 | -22.04702 | -42.33764 | 32333 ft | 467 kts | 228° |
| 2026-04-30 10:27 | -22.06851 | -42.36397 | 30796 ft | 481 kts | 237° |
| 2026-04-30 10:27 | -22.08603 | -42.39474 | 29727 ft | 481 kts | 246° |
| 2026-04-30 10:27 | -22.09842 | -42.42777 | 28998 ft | 471 kts | 255° |
| 2026-04-30 10:27 | -22.10549 | -42.46183 | 28420 ft | 460 kts | 264° |
| 2026-04-30 10:28 | -22.10722 | -42.49582 | 27882 ft | 450 kts | 273° |
| 2026-04-30 10:28 | -22.10381 | -42.52895 | 27257 ft | 437 kts | 282° |
| 2026-04-30 10:28 | -22.09574 | -42.56007 | 26235 ft | 427 kts | 291° |
| 2026-04-30 10:28 | -22.08305 | -42.58874 | 25113 ft | 423 kts | 300° |
| 2026-04-30 10:29 | -22.06596 | -42.61442 | 23984 ft | 421 kts | 310° |
| 2026-04-30 10:29 | -22.04498 | -42.63625 | 22754 ft | 419 kts | 320° |
| 2026-04-30 10:29 | -22.02079 | -42.65349 | 21600 ft | 416 kts | 329° |
| 2026-04-30 10:29 | -21.99426 | -42.66568 | 20532 ft | 414 kts | 339° |
| 2026-04-30 10:30 | -21.96598 | -42.67237 | 19650 ft | 420 kts | 350° |
| 2026-04-30 10:30 | -21.93675 | -42.67325 | 19083 ft | 424 kts | 0° |
| 2026-04-30 10:30 | -21.90746 | -42.66828 | 18739 ft | 428 kts | 11° |
| 2026-04-30 10:30 | -21.87939 | -42.65769 | 18555 ft | 427 kts | 21° |
| 2026-04-30 10:31 | -21.85358 | -42.64197 | 18370 ft | 426 kts | 32° |
| 2026-04-30 10:31 | -21.83070 | -42.62164 | 18073 ft | 428 kts | 42° |
| 2026-04-30 10:31 | -21.81138 | -42.59723 | 17739 ft | 430 kts | 52° |
| 2026-04-30 10:31 | -21.79629 | -42.56946 | 17429 ft | 431 kts | 63° |
| 2026-04-30 10:32 | -21.78593 | -42.53922 | 17149 ft | 431 kts | 73° |
| 2026-04-30 10:32 | -21.78066 | -42.50751 | 16873 ft | 430 kts | 84° |
| 2026-04-30 10:32 | -21.78061 | -42.47541 | 16601 ft | 429 kts | 94° |
| 2026-04-30 10:32 | -21.78575 | -42.44390 | 16330 ft | 428 kts | 105° |
| 2026-04-30 10:33 | -21.79576 | -42.41434 | 16086 ft | 425 kts | 115° |
| 2026-04-30 10:33 | -21.81056 | -42.38694 | 15825 ft | 423 kts | 126° |
| 2026-04-30 10:33 | -21.82955 | -42.36294 | 15552 ft | 420 kts | 137° |
| 2026-04-30 10:33 | -21.85205 | -42.34313 | 15295 ft | 416 kts | 147° |
| 2026-04-30 10:34 | -21.87724 | -42.32815 | 15041 ft | 412 kts | 158° |
| 2026-04-30 10:34 | -21.90428 | -42.31844 | 14796 ft | 408 kts | 169° |
| 2026-04-30 10:34 | -21.93220 | -42.31421 | 14553 ft | 404 kts | 179° |
| 2026-04-30 10:34 | -21.96017 | -42.31346 | 14295 ft | 401 kts | 182° |
| 2026-04-30 10:35 | -21.98797 | -42.31511 | 14039 ft | 399 kts | 189° |
| 2026-04-30 10:35 | -22.01506 | -42.32085 | 13794 ft | 396 kts | 198° |
| 2026-04-30 10:35 | -22.04103 | -42.33033 | 13518 ft | 393 kts | 204° |
| 2026-04-30 10:35 | -22.06587 | -42.34230 | 13250 ft | 390 kts | 208° |
| 2026-04-30 10:36 | -22.08997 | -42.35567 | 13005 ft | 389 kts | 210° |
| 2026-04-30 10:36 | -22.11363 | -42.36969 | 12772 ft | 387 kts | 211° |
| 2026-04-30 10:36 | -22.13705 | -42.38395 | 12528 ft | 386 kts | 211° |
| 2026-04-30 10:36 | -22.16036 | -42.39825 | 12280 ft | 385 kts | 211° |
| 2026-04-30 10:37 | -22.18362 | -42.41250 | 12044 ft | 384 kts | 211° |
| 2026-04-30 10:37 | -22.20680 | -42.42666 | 11829 ft | 382 kts | 211° |
| 2026-04-30 10:37 | -22.22993 | -42.44075 | 11596 ft | 381 kts | 211° |
| 2026-04-30 10:37 | -22.25304 | -42.45481 | 11367 ft | 381 kts | 210° |
| 2026-04-30 10:38 | -22.27610 | -42.46883 | 11162 ft | 380 kts | 210° |
| 2026-04-30 10:38 | -22.29909 | -42.48279 | 10942 ft | 379 kts | 210° |
| 2026-04-30 10:38 | -22.32202 | -42.49673 | 10737 ft | 378 kts | 210° |
| 2026-04-30 10:38 | -22.34492 | -42.51064 | 10525 ft | 377 kts | 210° |
| 2026-04-30 10:39 | -22.36778 | -42.52454 | 10299 ft | 376 kts | 210° |
| 2026-04-30 10:39 | -22.39057 | -42.53841 | 10101 ft | 376 kts | 210° |
| 2026-04-30 10:39 | -22.41330 | -42.55224 | 9973 ft | 373 kts | 210° |
| 2026-04-30 10:39 | -22.43573 | -42.56588 | 9936 ft | 367 kts | 210° |
| 2026-04-30 10:40 | -22.45777 | -42.57930 | 9885 ft | 361 kts | 210° |
| 2026-04-30 10:40 | -22.47947 | -42.59252 | 9859 ft | 356 kts | 210° |
| 2026-04-30 10:40 | -22.50089 | -42.60556 | 9818 ft | 351 kts | 210° |
| 2026-04-30 10:40 | -22.52202 | -42.61845 | 9780 ft | 347 kts | 210° |
| 2026-04-30 10:41 | -22.54290 | -42.63118 | 9755 ft | 343 kts | 210° |
| 2026-04-30 10:41 | -22.56357 | -42.64379 | 9715 ft | 339 kts | 210° |
| 2026-04-30 10:41 | -22.58397 | -42.65625 | 9680 ft | 334 kts | 210° |
| 2026-04-30 10:41 | -22.60398 | -42.66846 | 9542 ft | 327 kts | 210° |
| 2026-04-30 10:42 | -22.62353 | -42.68040 | 9395 ft | 317 kts | 210° |
| 2026-04-30 10:42 | -22.64235 | -42.69194 | 9301 ft | 303 kts | 212° |
| 2026-04-30 10:42 | -22.65762 | -42.70654 | 9105 ft | 291 kts | 236° |
| 2026-04-30 10:42 | -22.66606 | -42.72595 | 8927 ft | 282 kts | 253° |
| 2026-04-30 10:43 | -22.67120 | -42.74621 | 8713 ft | 276 kts | 255° |
| 2026-04-30 10:43 | -22.67619 | -42.76618 | 8433 ft | 274 kts | 255° |
| 2026-04-30 10:43 | -22.68116 | -42.78601 | 8193 ft | 270 kts | 255° |
| 2026-04-30 10:43 | -22.68603 | -42.80527 | 8077 ft | 261 kts | 254° |
| 2026-04-30 10:44 | -22.69077 | -42.82394 | 7917 ft | 254 kts | 254° |
| 2026-04-30 10:44 | -22.69543 | -42.84221 | 7692 ft | 250 kts | 254° |
| 2026-04-30 10:44 | -22.70003 | -42.86028 | 7407 ft | 248 kts | 254° |
| 2026-04-30 10:44 | -22.70463 | -42.87829 | 7101 ft | 248 kts | 254° |
| 2026-04-30 10:45 | -22.70922 | -42.89626 | 6790 ft | 247 kts | 254° |
| 2026-04-30 10:45 | -22.71379 | -42.91416 | 6501 ft | 246 kts | 254° |
| 2026-04-30 10:45 | -22.71835 | -42.93200 | 6180 ft | 245 kts | 254° |
| 2026-04-30 10:45 | -22.72309 | -42.94969 | 5888 ft | 244 kts | 254° |
| 2026-04-30 10:46 | -22.72771 | -42.96701 | 5740 ft | 235 kts | 254° |
| 2026-04-30 10:46 | -22.73200 | -42.98350 | 5576 ft | 225 kts | 255° |
| 2026-04-30 10:46 | -22.73607 | -42.99930 | 5352 ft | 212 kts | 255° |
| 2026-04-30 10:46 | -22.73991 | -43.01427 | 5084 ft | 201 kts | 255° |
| 2026-04-30 10:47 | -22.74359 | -43.02858 | 4734 ft | 194 kts | 256° |
| 2026-04-30 10:47 | -22.74717 | -43.04252 | 4324 ft | 189 kts | 256° |
| 2026-04-30 10:47 | -22.75063 | -43.05599 | 3963 ft | 182 kts | 256° |
| 2026-04-30 10:47 | -22.75397 | -43.06899 | 3575 ft | 177 kts | 257° |
| 2026-04-30 10:48 | -22.75725 | -43.08176 | 3133 ft | 176 kts | 257° |
| 2026-04-30 10:48 | -22.76051 | -43.09447 | 2689 ft | 175 kts | 256° |
| 2026-04-30 10:48 | -22.76375 | -43.10706 | 2216 ft | 172 kts | 256° |
| 2026-04-30 10:48 | -22.76689 | -43.11927 | 1869 ft | 166 kts | 256° |
| 2026-04-30 10:49 | -22.76996 | -43.13121 | 1693 ft | 162 kts | 256° |
| 2026-04-30 10:49 | -22.77288 | -43.14256 | 1435 ft | 150 kts | 256° |
| 2026-04-30 10:49 | -22.77563 | -43.15330 | 1286 ft | 148 kts | 256° |
| 2026-04-30 10:49 | -22.77840 | -43.16412 | 1079 ft | 149 kts | 255° |
| 2026-04-30 10:50 | -22.78117 | -43.17489 | 855 ft | 147 kts | 255° |
| 2026-04-30 10:50 | -22.78389 | -43.18546 | 669 ft | 144 kts | 255° |
| 2026-04-30 10:50 | -22.78657 | -43.19587 | 468 ft | 143 kts | 255° |
| 2026-04-30 10:50 | -22.78922 | -43.20622 | 284 ft | 142 kts | 256° |
| 2026-04-30 10:51 | -22.79188 | -43.21652 | 101 ft | 141 kts | 256° |
| 2026-04-30 10:51 | -22.79443 | -43.22646 | 41 ft | 126 kts | 253° |
| 2026-04-30 10:51 | -22.79632 | -43.23375 | 33 ft | 73 kts | 253° |
| 2026-04-30 10:51 | -22.79753 | -43.23811 | 32 ft | 27 kts | 244° |
| 2026-04-30 10:52 | -22.79846 | -43.23974 | 32 ft | 25 kts | 235° |
| 2026-04-30 10:52 | -22.79948 | -43.24131 | 36 ft | 25 kts | 235° |
| 2026-04-30 10:52 | -22.80050 | -43.24287 | 34 ft | 25 kts | 233° |
| 2026-04-30 10:52 | -22.80154 | -43.24442 | 34 ft | 25 kts | 237° |
| 2026-04-30 10:53 | -22.80186 | -43.24584 | 31 ft | 19 kts | 258° |
| 2026-04-30 10:53 | -22.80221 | -43.24723 | 32 ft | 19 kts | 253° |
| 2026-04-30 10:53 | -22.80257 | -43.24860 | 32 ft | 19 kts | 255° |
| 2026-04-30 10:53 | -22.80290 | -43.24999 | 31 ft | 19 kts | 255° |
| 2026-04-30 10:54 | -22.80327 | -43.25137 | 32 ft | 19 kts | 252° |
| 2026-04-30 10:54 | -22.80371 | -43.25270 | 33 ft | 19 kts | 245° |
| 2026-04-30 10:54 | -22.80437 | -43.25393 | 33 ft | 15 kts | 234° |
| 2026-04-30 10:54 | -22.80481 | -43.25446 | 34 ft | 9 kts | 226° |
| 2026-04-30 10:55 | -22.80528 | -43.25496 | 35 ft | 9 kts | 221° |
| 2026-04-30 10:55 | -22.80581 | -43.25542 | 34 ft | 11 kts | 216° |
| 2026-04-30 10:55 | -22.80645 | -43.25590 | 34 ft | 11 kts | 215° |
| 2026-04-30 10:55 | -22.80711 | -43.25640 | 34 ft | 12 kts | 215° |
| 2026-04-30 10:56 | -22.80755 | -43.25674 | 33 ft | 12 kts | 215° |
| 2026-04-30 10:56 | -22.80833 | -43.25734 | 29 ft | 16 kts | 215° |
| 2026-04-30 10:56 | -22.80926 | -43.25807 | 28 ft | 17 kts | 216° |
| 2026-04-30 10:56 | -22.81021 | -43.25880 | 28 ft | 17 kts | 216° |
| 2026-04-30 10:57 | -22.81123 | -43.25910 | 26 ft | 16 kts | 149° |
| 2026-04-30 10:57 | -22.81194 | -43.25812 | 26 ft | 17 kts | 127° |
| 2026-04-30 10:57 | -22.81262 | -43.25711 | 27 ft | 17 kts | 126° |
| 2026-04-30 10:57 | -22.81333 | -43.25604 | 29 ft | 18 kts | 125° |
| 2026-04-30 10:58 | -22.81405 | -43.25494 | 29 ft | 18 kts | 125° |
| 2026-04-30 10:58 | -22.81477 | -43.25384 | 32 ft | 18 kts | 125° |
| 2026-04-30 10:58 | -22.81550 | -43.25274 | 31 ft | 18 kts | 125° |
| 2026-04-30 10:58 | -22.81623 | -43.25164 | 29 ft | 18 kts | 126° |
| 2026-04-30 10:59 | -22.81696 | -43.25055 | 30 ft | 18 kts | 126° |
| 2026-04-30 10:59 | -22.81769 | -43.24945 | 31 ft | 18 kts | 126° |
| 2026-04-30 10:59 | -22.81842 | -43.24836 | 29 ft | 18 kts | 126° |
| 2026-04-30 10:59 | -22.81914 | -43.24725 | 29 ft | 18 kts | 125° |
| 2026-04-30 11:00 | -22.81941 | -43.24597 | 29 ft | 18 kts | 110° |
| 2026-04-30 11:00 | -22.82007 | -43.24483 | 30 ft | 18 kts | 125° |
| 2026-04-30 11:00 | -22.82060 | -43.24402 | 29 ft | 8 kts | 125° |
| 2026-04-30 11:00 | -22.82083 | -43.24349 | 30 ft | 8 kts | 95° |
| 2026-04-30 11:01 | -22.82053 | -43.24300 | 31 ft | 8 kts | 41° |
| 2026-04-30 11:01 | -22.82009 | -43.24264 | 26 ft | 8 kts | 36° |
| 2026-04-30 11:01 | -22.81964 | -43.24228 | 26 ft | 8 kts | 36° |
| 2026-04-30 11:01 | -22.81920 | -43.24193 | 26 ft | 8 kts | 36° |
| 2026-04-30 11:02 | -22.81876 | -43.24194 | 27 ft | 5 kts | 329° |
| 2026-04-30 11:02 | -22.81855 | -43.24215 | 27 ft | 3 kts | 313° |
| 2026-04-30 11:02 | -22.81844 | -43.24228 | 27 ft | 0 kts | 309° |